Time;durP1;ratioP1;P1;durP2;ratioP2;P2;SDS_P1;SDS_P2;PMS_P1;PMS_P2;Temp;Humidity;BMP_temperature;BMP_pressure;BME280_temperature;BME280_humidity;BME280_pressure;Samples;Min_cycle;Max_cycle;Signal;HPM_P1;HPM_P2
2022/01/27 00:02:54;;;;;;;0.40;0.40;;;3.50;99.90;;;;;;5072788;28;20421;-69
2022/01/27 00:05:48;;;;;;;1.87;1.70;;;3.50;99.90;;;;;;5071004;28;20518;-69
2022/01/27 00:08:42;;;;;;;2.13;1.93;;;3.50;99.90;;;;;;5073104;28;20459;-68
2022/01/27 00:11:29;;;;;;;6.57;5.90;;;3.40;99.90;;;;;;5074256;28;20424;-69
2022/01/27 00:14:18;;;;;;;1.17;1.07;;;3.50;99.90;;;;;;5071199;28;20425;-68
2022/01/27 00:17:13;;;;;;;0.80;0.80;;;3.40;99.90;;;;;;5075095;28;20437;-69
2022/01/27 00:20:00;;;;;;;0.40;0.40;;;3.30;99.90;;;;;;5070766;28;20436;-69
2022/01/27 00:22:48;;;;;;;1.47;1.33;;;3.40;99.90;;;;;;5069985;28;20424;-69
2022/01/27 00:25:35;;;;;;;3.90;1.60;;;3.30;99.90;;;;;;5071499;28;20420;-68
2022/01/27 00:28:22;;;;;;;0.40;0.40;;;3.30;99.90;;;;;;5073181;28;20468;-69
2022/01/27 00:31:09;;;;;;;0.77;0.77;;;3.30;99.90;;;;;;5072840;28;20420;-70
2022/01/27 00:33:57;;;;;;;0.40;0.40;;;3.40;99.90;;;;;;5068364;28;20424;-70
2022/01/27 00:36:44;;;;;;;0.90;0.90;;;3.40;99.90;;;;;;5066502;28;20436;-69
2022/01/27 00:39:32;;;;;;;2.40;1.43;;;3.40;99.90;;;;;;5068758;28;20898;-69
2022/01/27 00:42:20;;;;;;;3.77;3.60;;;3.40;99.90;;;;;;5065774;28;20432;-69
2022/01/27 00:45:08;;;;;;;2.40;1.67;;;3.50;99.90;;;;;;5068540;28;20431;-69
2022/01/27 00:47:55;;;;;;;0.70;0.70;;;3.50;99.90;;;;;;5069131;28;20456;-70
2022/01/27 00:50:43;;;;;;;2.40;1.43;;;3.70;99.90;;;;;;5069880;28;20451;-69
2022/01/27 00:53:39;;;;;;;1.73;1.37;;;3.60;99.90;;;;;;5070968;28;20503;-69
2022/01/27 00:56:35;;;;;;;0.40;0.40;;;3.70;99.90;;;;;;5069691;28;20496;-70
2022/01/27 00:59:34;;;;;;;3.40;1.10;;;3.60;99.90;;;;;;5069301;28;20448;-69
2022/01/27 01:02:32;;;;;;;0.40;0.40;;;3.60;99.90;;;;;;5070179;28;20425;-68
2022/01/27 01:05:36;;;;;;;0.40;0.40;;;3.70;99.90;;;;;;5072719;28;20436;-69
2022/01/27 01:14:39;;;;;;;0.40;0.40;;;3.80;99.90;;;;;;5057923;28;20448;-69
2022/01/27 01:17:39;;;;;;;0.67;0.67;;;3.80;99.90;;;;;;5072933;28;20456;-69
2022/01/27 01:21:00;;;;;;;0.40;0.40;;;3.80;99.90;;;;;;5070644;28;20454;-68
2022/01/27 01:30:09;;;;;;;0.60;0.60;;;3.90;99.90;;;;;;5070559;28;20463;-69
2022/01/27 01:32:58;;;;;;;0.50;0.50;;;3.80;99.90;;;;;;5069525;28;20515;-69
2022/01/27 01:35:48;;;;;;;1.27;1.17;;;3.80;99.90;;;;;;5069041;28;20969;-68
2022/01/27 01:38:35;;;;;;;3.90;1.90;;;3.90;99.90;;;;;;5068701;28;20448;-69
2022/01/27 01:41:22;;;;;;;3.43;2.50;;;3.90;99.90;;;;;;5069804;28;20432;-70
2022/01/27 01:44:11;;;;;;;0.70;0.70;;;3.90;99.90;;;;;;5069796;28;20428;-72
2022/01/27 01:46:58;;;;;;;1.37;1.20;;;3.90;99.90;;;;;;5069010;28;20486;-69
2022/01/27 01:49:45;;;;;;;0.60;0.60;;;4.00;99.90;;;;;;5069762;28;20468;-69
2022/01/27 01:52:32;;;;;;;0.53;0.47;;;3.90;99.90;;;;;;5067968;28;20447;-69
2022/01/27 01:55:19;;;;;;;0.60;0.60;;;4.00;99.90;;;;;;5067962;28;20960;-70
2022/01/27 01:58:06;;;;;;;3.80;1.90;;;3.90;99.90;;;;;;5067405;28;20486;-70
2022/01/27 02:00:54;;;;;;;2.40;0.60;;;3.90;99.90;;;;;;5067225;28;20454;-69
2022/01/27 02:03:41;;;;;;;0.40;0.40;;;3.90;99.90;;;;;;5070713;28;20429;-71
2022/01/27 02:06:33;;;;;;;1.00;1.00;;;3.90;99.90;;;;;;5069418;28;20435;-69
2022/01/27 02:09:33;;;;;;;7.40;1.73;;;4.00;99.90;;;;;;5067436;28;21145;-69
2022/01/27 02:18:31;;;;;;;0.60;0.60;;;4.00;99.90;;;;;;5067538;28;20443;-69
2022/01/27 02:21:19;;;;;;;0.90;0.90;;;4.10;99.90;;;;;;5067444;28;20421;-69
2022/01/27 02:24:06;;;;;;;3.70;1.80;;;4.00;99.90;;;;;;5067524;28;20824;-72
2022/01/27 02:26:53;;;;;;;0.93;0.70;;;4.00;99.90;;;;;;5068744;28;20463;-68
2022/01/27 02:29:40;;;;;;;7.93;2.40;;;4.10;99.90;;;;;;5069467;28;20566;-68
2022/01/27 02:32:27;;;;;;;0.83;0.50;;;4.10;99.90;;;;;;5067904;28;20424;-68
2022/01/27 02:35:14;;;;;;;4.37;1.90;;;4.10;99.90;;;;;;5067867;28;20460;-68
2022/01/27 02:38:03;;;;;;;0.70;0.70;;;4.00;99.90;;;;;;5068485;28;20474;-68
2022/01/27 02:40:55;;;;;;;16.53;2.17;;;4.00;99.90;;;;;;5070654;28;20432;-68
2022/01/27 02:43:41;;;;;;;1.17;1.17;;;4.00;99.90;;;;;;5067098;28;20459;-69
2022/01/27 02:46:35;;;;;;;0.60;0.60;;;4.10;99.90;;;;;;5074484;28;20462;-69
2022/01/27 02:49:22;;;;;;;0.60;0.60;;;4.10;99.90;;;;;;5060156;28;20488;-69
2022/01/27 02:52:10;;;;;;;0.50;0.50;;;4.10;99.90;;;;;;5059634;28;20995;-69
2022/01/27 02:54:58;;;;;;;0.50;0.50;;;4.10;99.90;;;;;;5069266;28;20451;-69
2022/01/27 02:57:45;;;;;;;2.40;1.90;;;4.20;99.90;;;;;;5052105;28;20433;-69
2022/01/27 03:00:33;;;;;;;2.10;0.60;;;4.10;99.90;;;;;;5051744;28;20448;-69
2022/01/27 03:03:20;;;;;;;0.50;0.50;;;4.10;99.90;;;;;;5052977;28;20425;-69
2022/01/27 03:06:07;;;;;;;0.50;0.50;;;4.10;99.90;;;;;;5050593;28;20444;-69
2022/01/27 03:08:54;;;;;;;0.93;0.93;;;4.20;99.90;;;;;;5048983;28;20484;-69
2022/01/27 03:11:47;;;;;;;2.50;1.23;;;4.20;99.90;;;;;;5054065;28;20422;-69
2022/01/27 03:14:36;;;;;;;0.40;0.40;;;4.30;99.90;;;;;;5053005;28;20437;-68
2022/01/27 03:17:23;;;;;;;2.10;1.57;;;4.20;99.90;;;;;;5053682;28;20436;-69
2022/01/27 03:20:10;;;;;;;0.50;0.50;;;4.20;99.90;;;;;;5051439;28;20516;-70
2022/01/27 03:22:57;;;;;;;0.40;0.40;;;4.20;99.90;;;;;;5052459;28;20435;-67
2022/01/27 03:25:47;;;;;;;1.90;1.27;;;4.30;99.90;;;;;;5054359;28;20417;-67
2022/01/27 03:28:35;;;;;;;1.30;1.20;;;4.40;99.90;;;;;;5054646;28;20487;-67
2022/01/27 03:31:22;;;;;;;0.80;0.80;;;4.30;99.90;;;;;;5051927;28;20455;-68
2022/01/27 03:34:09;;;;;;;1.43;1.33;;;4.40;99.90;;;;;;5051944;28;20421;-67
2022/01/27 03:36:56;;;;;;;4.77;1.93;;;4.30;99.90;;;;;;5039856;28;20476;-68
2022/01/27 03:39:43;;;;;;;4.43;2.30;;;4.30;99.90;;;;;;5046485;28;20941;-68
2022/01/27 03:42:30;;;;;;;0.90;0.90;;;4.40;99.90;;;;;;5049021;28;20425;-68
2022/01/27 03:45:18;;;;;;;1.80;1.70;;;4.40;99.90;;;;;;5049082;28;20432;-71
2022/01/27 03:48:06;;;;;;;0.87;0.87;;;4.40;99.90;;;;;;5050604;28;20958;-68
2022/01/27 03:50:53;;;;;;;0.80;0.80;;;4.40;99.90;;;;;;5050699;28;20432;-69
2022/01/27 03:53:39;;;;;;;2.00;1.60;;;4.40;99.90;;;;;;5051401;28;20422;-71
2022/01/27 03:56:26;;;;;;;2.70;1.30;;;4.40;99.90;;;;;;5050751;28;20440;-69
2022/01/27 03:59:13;;;;;;;1.43;1.33;;;4.40;99.90;;;;;;5050306;28;20486;-69
2022/01/27 04:02:04;;;;;;;2.97;1.50;;;4.40;99.90;;;;;;5052199;28;20443;-68
2022/01/27 04:04:51;;;;;;;1.47;1.00;;;4.40;99.90;;;;;;5050088;28;20448;-71
2022/01/27 04:07:38;;;;;;;3.20;3.00;;;4.50;99.90;;;;;;5049499;28;21032;-68
2022/01/27 04:10:25;;;;;;;6.90;4.33;;;4.40;99.90;;;;;;5046673;28;20464;-67
2022/01/27 04:13:12;;;;;;;0.77;0.77;;;4.50;99.90;;;;;;5048982;28;20429;-69
2022/01/27 04:15:59;;;;;;;7.50;3.50;;;4.50;99.90;;;;;;5050366;28;20413;-68
2022/01/27 04:18:47;;;;;;;1.83;1.33;;;4.50;99.90;;;;;;5048274;28;20445;-69
2022/01/27 04:21:34;;;;;;;0.70;0.70;;;4.50;99.90;;;;;;5042432;28;20432;-69
2022/01/27 04:24:21;;;;;;;3.97;1.63;;;4.50;99.90;;;;;;5055168;28;20483;-69
2022/01/27 04:27:16;;;;;;;0.50;0.50;;;4.60;99.90;;;;;;5065824;28;20428;-68
2022/01/27 04:30:07;;;;;;;3.20;1.47;;;4.50;99.90;;;;;;5066555;28;20479;-69
2022/01/27 04:32:57;;;;;;;0.70;0.70;;;4.50;99.90;;;;;;5068392;28;20444;-69
2022/01/27 04:35:48;;;;;;;0.40;0.40;;;4.50;99.90;;;;;;5067627;28;21024;-69
2022/01/27 04:38:41;;;;;;;1.70;1.27;;;4.50;99.90;;;;;;5065007;28;20456;-67
2022/01/27 04:41:35;;;;;;;4.03;2.20;;;4.50;99.90;;;;;;5069095;28;20507;-69
2022/01/27 04:44:28;;;;;;;0.73;0.73;;;4.50;99.90;;;;;;5066615;28;20424;-70
2022/01/27 04:47:20;;;;;;;0.70;0.70;;;4.60;99.90;;;;;;5068538;28;20443;-69
2022/01/27 04:50:08;;;;;;;1.03;0.93;;;4.60;99.90;;;;;;5066834;28;21035;-69
2022/01/27 04:52:59;;;;;;;0.87;0.87;;;4.60;99.90;;;;;;5069637;28;20428;-70
2022/01/27 04:55:46;;;;;;;0.60;0.60;;;4.50;99.90;;;;;;5064293;28;20440;-69
2022/01/27 04:58:34;;;;;;;2.20;1.20;;;4.50;99.90;;;;;;5055624;28;20535;-69
2022/01/27 05:01:28;;;;;;;3.20;2.57;;;4.50;99.90;;;;;;5060847;28;20432;-68
2022/01/27 05:04:17;;;;;;;1.83;1.03;;;4.60;99.90;;;;;;5066471;28;20443;-69
2022/01/27 05:07:05;;;;;;;0.87;0.83;;;4.50;99.90;;;;;;5066726;28;20425;-69
2022/01/27 05:09:58;;;;;;;0.73;0.73;;;4.50;99.90;;;;;;5065646;28;20976;-69
2022/01/27 05:12:48;;;;;;;1.97;1.80;;;4.50;99.90;;;;;;5063550;28;20462;-69
2022/01/27 05:15:42;;;;;;;5.17;2.17;;;4.50;99.90;;;;;;5062658;28;20487;-69
2022/01/27 05:18:29;;;;;;;1.27;1.27;;;4.50;99.90;;;;;;5070359;28;20491;-69
2022/01/27 05:21:16;;;;;;;0.80;0.80;;;4.50;99.90;;;;;;5065151;28;20428;-69
2022/01/27 05:24:03;;;;;;;2.60;1.37;;;4.50;99.90;;;;;;5068549;28;20435;-69
2022/01/27 05:26:52;;;;;;;3.90;1.33;;;4.50;99.90;;;;;;5066837;28;20420;-69
2022/01/27 05:29:39;;;;;;;3.50;2.80;;;4.50;99.90;;;;;;5067637;28;20464;-69
2022/01/27 05:32:25;;;;;;;2.67;2.17;;;4.50;99.90;;;;;;5064589;28;20882;-69
2022/01/27 05:35:12;;;;;;;1.53;1.43;;;4.50;99.90;;;;;;5065990;28;20424;-69
2022/01/27 05:37:59;;;;;;;0.93;0.93;;;4.50;99.90;;;;;;5064634;28;20431;-69
2022/01/27 05:40:46;;;;;;;0.40;0.40;;;4.50;99.90;;;;;;5069249;28;20489;-69
2022/01/27 05:43:35;;;;;;;2.40;1.93;;;4.50;99.90;;;;;;5068978;28;20439;-69
2022/01/27 05:46:22;;;;;;;3.43;2.70;;;4.50;99.90;;;;;;5068405;28;20950;-69
2022/01/27 05:49:09;;;;;;;0.70;0.70;;;4.40;99.90;;;;;;5066909;28;20759;-68
2022/01/27 05:51:56;;;;;;;3.33;1.60;;;4.40;99.90;;;;;;5064040;28;20478;-69
2022/01/27 05:54:45;;;;;;;4.83;2.73;;;4.40;99.90;;;;;;5062310;28;20483;-70
2022/01/27 05:57:31;;;;;;;0.60;0.60;;;4.40;99.90;;;;;;5064227;28;20440;-69
2022/01/27 06:00:20;;;;;;;3.33;2.20;;;4.40;99.90;;;;;;5064238;28;20435;-70
2022/01/27 06:03:07;;;;;;;0.40;0.40;;;4.40;99.90;;;;;;5063509;28;20466;-69
2022/01/27 06:05:54;;;;;;;1.90;1.43;;;4.40;99.90;;;;;;5064314;28;20459;-70
2022/01/27 06:08:41;;;;;;;1.67;1.57;;;4.40;99.90;;;;;;5058625;28;20465;-70
2022/01/27 06:11:28;;;;;;;0.50;0.50;;;4.40;99.90;;;;;;5063550;28;20506;-69
2022/01/27 06:14:15;;;;;;;3.30;3.00;;;4.50;99.90;;;;;;5059890;28;20452;-68
2022/01/27 06:17:03;;;;;;;2.00;1.63;;;4.40;99.90;;;;;;5061961;28;20427;-69
2022/01/27 06:19:54;;;;;;;1.50;1.10;;;4.40;99.90;;;;;;5059124;28;20448;-69
2022/01/27 06:22:42;;;;;;;0.73;0.73;;;4.40;99.90;;;;;;5069788;28;20416;-68
2022/01/27 06:25:30;;;;;;;2.67;1.57;;;4.30;99.90;;;;;;5069464;28;20424;-71
2022/01/27 06:28:17;;;;;;;0.97;0.93;;;4.40;99.90;;;;;;5068852;28;20464;-68
2022/01/27 06:31:04;;;;;;;0.50;0.50;;;4.50;99.90;;;;;;5073477;28;20566;-69
2022/01/27 06:33:53;;;;;;;0.57;0.57;;;4.30;99.90;;;;;;5067334;28;20454;-68
2022/01/27 06:36:39;;;;;;;1.90;1.80;;;4.30;99.90;;;;;;5069994;28;20438;-69
2022/01/27 06:39:26;;;;;;;0.40;0.40;;;4.40;99.90;;;;;;5066883;28;20513;-68
2022/01/27 06:42:13;;;;;;;2.57;2.37;;;4.40;99.90;;;;;;5065872;28;20462;-69
2022/01/27 06:45:00;;;;;;;1.07;0.70;;;4.30;99.90;;;;;;5070415;28;20443;-69
2022/01/27 06:47:47;;;;;;;0.40;0.40;;;4.40;99.90;;;;;;5096549;28;20399;-68
2022/01/27 06:50:37;;;;;;;1.20;1.10;;;4.40;99.90;;;;;;5094143;28;20466;-69
2022/01/27 06:53:30;;;;;;;5.00;3.03;;;4.40;99.90;;;;;;5093937;28;20527;-70
2022/01/27 06:56:17;;;;;;;1.77;1.67;;;4.40;99.90;;;;;;5074801;28;20433;-68
2022/01/27 06:59:04;;;;;;;9.17;3.23;;;4.60;99.90;;;;;;5065136;28;20432;-69
2022/01/27 07:01:51;;;;;;;26.63;9.67;;;4.40;99.90;;;;;;5068806;28;20431;-68
2022/01/27 07:04:38;;;;;;;2.20;2.00;;;4.40;99.90;;;;;;5080754;28;20459;-68
2022/01/27 07:07:26;;;;;;;1.40;1.30;;;4.50;99.90;;;;;;5091785;28;20427;-68
2022/01/27 07:10:13;;;;;;;1.13;1.03;;;4.50;99.90;;;;;;5081105;28;20498;-66
2022/01/27 07:13:00;;;;;;;21.33;7.00;;;4.50;99.90;;;;;;5068352;28;20459;-68
2022/01/27 07:15:47;;;;;;;1.47;1.37;;;4.50;99.90;;;;;;5064240;28;20462;-70
2022/01/27 07:18:34;;;;;;;12.40;5.80;;;4.50;99.90;;;;;;5051998;28;20603;-66
2022/01/27 07:21:21;;;;;;;2.70;2.33;;;4.50;99.90;;;;;;5069730;28;20435;-69
2022/01/27 07:24:09;;;;;;;6.70;3.80;;;4.50;99.90;;;;;;5050925;28;20439;-67
2022/01/27 07:26:57;;;;;;;2.60;2.27;;;4.50;99.90;;;;;;5077186;28;20972;-67
2022/01/27 07:29:45;;;;;;;11.10;3.50;;;4.50;99.90;;;;;;5071737;28;20464;-67
2022/01/27 07:32:32;;;;;;;1.27;1.17;;;4.50;99.90;;;;;;5067800;28;20432;-68
2022/01/27 07:35:19;;;;;;;3.73;3.43;;;4.50;99.90;;;;;;5068872;28;20408;-66
2022/01/27 07:38:06;;;;;;;8.63;4.77;;;4.50;99.90;;;;;;5064885;28;20804;-69
2022/01/27 07:40:54;;;;;;;6.50;2.43;;;4.50;99.90;;;;;;5068801;28;20499;-65
2022/01/27 07:43:41;;;;;;;6.07;2.63;;;4.40;99.90;;;;;;5065258;28;20427;-67
2022/01/27 07:46:28;;;;;;;13.53;7.60;;;4.40;99.90;;;;;;5069865;28;20439;-65
2022/01/27 07:49:15;;;;;;;7.77;4.30;;;4.40;99.90;;;;;;5086632;28;20439;-67
2022/01/27 07:52:02;;;;;;;8.03;3.50;;;4.40;99.90;;;;;;5089489;28;20518;-66
2022/01/27 07:54:49;;;;;;;9.43;4.17;;;4.40;99.90;;;;;;5077277;28;20451;-65
2022/01/27 07:57:38;;;;;;;11.83;7.50;;;4.40;99.90;;;;;;5060778;28;20428;-67
2022/01/27 08:00:25;;;;;;;2.03;1.93;;;4.40;99.90;;;;;;5067058;28;20436;-66
2022/01/27 08:03:12;;;;;;;17.50;6.77;;;4.50;99.90;;;;;;5058884;28;21226;-66
2022/01/27 08:05:59;;;;;;;2.50;1.30;;;4.50;99.90;;;;;;5056993;28;20424;-65
2022/01/27 08:08:46;;;;;;;5.53;4.17;;;4.50;99.90;;;;;;5056731;28;20448;-65
2022/01/27 08:11:33;;;;;;;9.53;4.30;;;4.50;99.90;;;;;;5052865;28;20460;-66
2022/01/27 08:14:21;;;;;;;5.47;3.00;;;4.50;99.90;;;;;;5057203;28;20860;-66
2022/01/27 08:17:08;;;;;;;4.87;4.13;;;4.50;99.90;;;;;;5055236;28;20477;-66
2022/01/27 08:19:56;;;;;;;2.47;1.77;;;4.50;99.90;;;;;;5063723;28;20456;-66
2022/01/27 08:22:44;;;;;;;2.80;2.13;;;4.50;99.90;;;;;;5074660;28;20424;-65
2022/01/27 08:25:31;;;;;;;9.53;5.27;;;4.50;99.90;;;;;;5074367;28;20435;-66
2022/01/27 08:28:26;;;;;;;0.80;0.77;;;4.50;99.90;;;;;;5060769;28;20467;-65
2022/01/27 08:31:14;;;;;;;2.93;2.30;;;4.50;99.90;;;;;;5054834;28;21296;-65
2022/01/27 08:34:04;;;;;;;4.00;2.43;;;4.50;99.90;;;;;;5051718;28;20436;-65
2022/01/27 08:36:51;;;;;;;2.30;1.37;;;4.50;99.90;;;;;;5047536;28;20432;-65
2022/01/27 08:39:39;;;;;;;0.93;0.93;;;4.50;99.90;;;;;;5051797;28;21002;-65
2022/01/27 08:42:27;;;;;;;0.60;0.60;;;4.40;99.90;;;;;;5057878;28;20488;-65
2022/01/27 08:45:17;;;;;;;1.90;1.80;;;4.40;99.90;;;;;;5058527;28;20424;-65
2022/01/27 08:48:06;;;;;;;4.77;3.03;;;4.50;99.90;;;;;;5059898;28;20419;-66
2022/01/27 08:50:59;;;;;;;0.60;0.60;;;4.60;99.90;;;;;;5048658;28;20487;-65
2022/01/27 08:53:46;;;;;;;0.67;0.67;;;4.60;99.90;;;;;;5052487;28;20416;-66
2022/01/27 08:56:33;;;;;;;6.67;3.80;;;4.50;99.90;;;;;;5061770;28;20455;-65
2022/01/27 08:59:20;;;;;;;8.23;4.60;;;4.50;99.90;;;;;;5066009;28;20444;-66
2022/01/27 09:02:07;;;;;;;8.30;3.90;;;4.50;99.90;;;;;;5051108;28;20409;-66
2022/01/27 09:04:56;;;;;;;8.60;4.13;;;4.50;99.90;;;;;;5071074;28;20478;-66
2022/01/27 09:07:43;;;;;;;2.67;2.47;;;4.50;99.90;;;;;;5087031;28;20419;-68
2022/01/27 09:10:32;;;;;;;1.63;1.53;;;4.60;99.90;;;;;;5082714;28;20483;-66
2022/01/27 09:13:19;;;;;;;3.30;2.67;;;4.50;99.90;;;;;;5067889;28;20500;-67
2022/01/27 09:16:06;;;;;;;3.00;2.00;;;4.50;99.90;;;;;;5072707;28;20481;-71
2022/01/27 09:18:53;;;;;;;5.70;3.70;;;4.50;99.90;;;;;;5061274;28;20436;-68
2022/01/27 09:21:46;;;;;;;1.20;1.10;;;4.50;99.90;;;;;;5071373;28;20420;-66
2022/01/27 09:24:39;;;;;;;1.80;1.53;;;4.40;99.90;;;;;;5064164;28;20436;-66
2022/01/27 09:27:27;;;;;;;2.00;0.90;;;4.40;99.90;;;;;;5061462;28;20479;-69
2022/01/27 09:30:17;;;;;;;0.73;0.73;;;4.40;99.90;;;;;;5070201;28;20500;-66
2022/01/27 09:33:04;;;;;;;1.27;1.00;;;4.40;99.90;;;;;;5068591;28;20431;-66
2022/01/27 09:35:51;;;;;;;4.73;1.23;;;4.30;99.90;;;;;;5067781;28;20436;-67
2022/01/27 09:38:39;;;;;;;1.83;1.83;;;4.40;99.90;;;;;;5064812;28;20513;-68
2022/01/27 09:41:28;;;;;;;0.50;0.50;;;4.40;99.90;;;;;;5061055;28;20453;-67
2022/01/27 09:44:15;;;;;;;0.50;0.50;;;4.40;99.90;;;;;;5067909;28;20963;-67
2022/01/27 09:47:05;;;;;;;9.43;4.80;;;4.50;99.90;;;;;;5053787;28;20431;-67
2022/01/27 09:50:03;;;;;;;3.13;2.50;;;4.50;99.90;;;;;;5042575;28;20479;-66
2022/01/27 09:52:50;;;;;;;1.43;0.73;;;4.50;99.90;;;;;;5055363;28;20439;-66
2022/01/27 09:55:38;;;;;;;2.73;2.30;;;4.30;99.90;;;;;;5053932;28;20513;-66
2022/01/27 09:58:27;;;;;;;1.53;1.43;;;4.30;99.90;;;;;;5052339;28;20447;-66
2022/01/27 10:01:14;;;;;;;1.43;1.33;;;4.40;99.90;;;;;;5051274;28;20424;-67
2022/01/27 10:04:04;;;;;;;1.17;1.07;;;4.40;99.90;;;;;;5046737;28;20924;-66
2022/01/27 10:06:57;;;;;;;2.00;1.70;;;4.40;99.90;;;;;;5051885;28;20925;-66
2022/01/27 10:10:01;;;;;;;5.17;1.77;;;4.40;99.90;;;;;;5051385;28;20453;-66
2022/01/27 10:12:53;;;;;;;2.10;1.90;;;4.40;99.90;;;;;;5049582;28;20439;-67
2022/01/27 10:15:42;;;;;;;6.00;2.40;;;4.40;99.90;;;;;;5053061;28;20424;-67
2022/01/27 10:18:35;;;;;;;6.27;3.70;;;4.40;99.90;;;;;;5052436;28;20602;-67
2022/01/27 10:21:32;;;;;;;1.27;1.00;;;4.30;99.90;;;;;;5053255;28;20567;-67
2022/01/27 10:24:23;;;;;;;0.60;0.60;;;4.30;99.90;;;;;;5052972;28;20495;-66
2022/01/27 10:27:23;;;;;;;7.07;4.13;;;4.30;99.90;;;;;;5054842;28;20440;-66
2022/01/27 10:33:19;;;;;;;5.73;2.80;;;4.40;99.90;;;;;;5048878;28;20434;-68
2022/01/27 10:36:18;;;;;;;8.03;5.20;;;4.40;99.90;;;;;;5049613;28;20519;-67
2022/01/27 10:39:07;;;;;;;0.50;0.50;;;4.50;99.90;;;;;;5053907;28;20458;-66
2022/01/27 10:41:59;;;;;;;7.77;2.63;;;4.50;99.90;;;;;;5069278;28;20773;-66
2022/01/27 10:44:48;;;;;;;2.93;1.30;;;4.50;99.90;;;;;;5058632;28;20428;-66
2022/01/27 10:47:43;;;;;;;6.43;3.50;;;4.50;99.90;;;;;;5067053;28;20431;-66
2022/01/27 10:50:31;;;;;;;0.60;0.60;;;4.50;99.90;;;;;;5052447;28;20806;-66
2022/01/27 10:53:19;;;;;;;2.23;1.90;;;4.50;99.90;;;;;;5055890;28;20431;-66
2022/01/27 10:56:07;;;;;;;1.60;1.30;;;4.40;99.90;;;;;;5065018;28;20451;-66
2022/01/27 10:58:56;;;;;;;0.93;0.60;;;4.40;99.90;;;;;;5040632;28;20440;-68
2022/01/27 11:01:44;;;;;;;4.20;2.03;;;4.30;99.90;;;;;;5052044;28;20440;-66
2022/01/27 11:04:37;;;;;;;1.23;1.20;;;4.20;99.90;;;;;;5053044;28;20431;-66
2022/01/27 11:07:26;;;;;;;3.53;2.17;;;4.20;99.90;;;;;;5052725;28;20423;-66
2022/01/27 11:10:15;;;;;;;2.90;1.20;;;4.20;99.90;;;;;;5030630;28;20460;-67
2022/01/27 11:13:03;;;;;;;0.40;0.40;;;4.10;99.90;;;;;;5056642;28;20436;-67
2022/01/27 11:15:54;;;;;;;0.70;0.57;;;4.10;99.90;;;;;;5044886;28;21530;-67
2022/01/27 11:18:44;;;;;;;0.70;0.70;;;4.30;99.90;;;;;;5060038;28;20442;-67
2022/01/27 11:21:37;;;;;;;6.10;4.30;;;4.20;99.90;;;;;;5053060;28;20436;-67
2022/01/27 11:24:33;;;;;;;0.40;0.40;;;4.20;99.90;;;;;;5055002;28;20910;-67
2022/01/27 11:27:20;;;;;;;1.03;1.03;;;4.10;99.90;;;;;;5052428;28;20558;-67
2022/01/27 11:30:12;;;;;;;0.40;0.40;;;4.10;99.90;;;;;;5053033;28;20494;-66
2022/01/27 11:33:03;;;;;;;6.87;1.40;;;4.20;99.90;;;;;;5036108;28;20428;-67
2022/01/27 11:36:05;;;;;;;1.23;1.13;;;4.10;99.90;;;;;;5036541;28;20424;-67
2022/01/27 11:38:54;;;;;;;0.53;0.53;;;4.10;99.90;;;;;;5035464;28;20964;-67
2022/01/27 11:41:43;;;;;;;1.00;0.63;;;4.20;99.90;;;;;;5036131;28;20507;-67
2022/01/27 11:44:34;;;;;;;7.00;3.10;;;4.10;99.90;;;;;;5037589;28;20421;-67
2022/01/27 11:47:22;;;;;;;0.87;0.80;;;4.10;99.90;;;;;;5036407;28;20409;-67
2022/01/27 11:50:30;;;;;;;1.97;1.33;;;4.10;99.90;;;;;;5035766;28;20556;-67
2022/01/27 11:53:35;;;;;;;1.83;1.73;;;4.10;99.90;;;;;;5042428;28;20978;-67
2022/01/27 11:56:37;;;;;;;0.90;0.90;;;4.10;99.90;;;;;;5063228;28;20439;-68
2022/01/27 11:59:37;;;;;;;1.33;1.23;;;4.10;99.90;;;;;;5052571;28;20455;-69
2022/01/27 12:02:24;;;;;;;2.97;2.27;;;4.10;99.90;;;;;;5057339;28;20439;-69
2022/01/27 12:05:14;;;;;;;1.13;1.03;;;4.10;99.90;;;;;;5055602;28;20435;-68
2022/01/27 12:08:24;;;;;;;1.13;1.13;;;4.00;99.90;;;;;;5056102;28;20435;-68
2022/01/27 12:11:31;;;;;;;5.30;2.70;;;4.10;99.90;;;;;;5056090;28;20547;-67
2022/01/27 12:14:22;;;;;;;5.03;3.37;;;4.10;99.90;;;;;;5052860;28;20559;-67
2022/01/27 12:17:23;;;;;;;4.10;2.00;;;4.20;99.90;;;;;;5064081;28;20468;-69
2022/01/27 12:20:13;;;;;;;5.40;3.33;;;4.10;99.90;;;;;;5057463;28;20455;-68
2022/01/27 12:23:08;;;;;;;6.70;2.37;;;4.20;99.90;;;;;;5053982;28;20447;-68
2022/01/27 12:25:58;;;;;;;4.53;1.47;;;4.20;99.90;;;;;;5045799;28;20423;-67
2022/01/27 12:28:45;;;;;;;1.17;0.80;;;4.20;99.90;;;;;;5051313;28;20475;-68
2022/01/27 12:31:34;;;;;;;0.60;0.60;;;4.20;99.90;;;;;;5066509;28;20459;-67
2022/01/27 12:34:22;;;;;;;1.73;1.53;;;4.20;99.90;;;;;;5055612;28;20801;-68
2022/01/27 12:37:11;;;;;;;0.40;0.40;;;4.20;99.90;;;;;;5055287;28;21098;-67
2022/01/27 12:40:00;;;;;;;2.10;1.90;;;4.30;99.90;;;;;;5045876;28;20491;-68
2022/01/27 12:42:55;;;;;;;0.50;0.50;;;4.30;99.90;;;;;;5054929;28;20517;-68
2022/01/27 12:45:44;;;;;;;3.63;3.07;;;4.40;99.90;;;;;;5054202;28;20421;-67
2022/01/27 12:48:32;;;;;;;0.97;0.57;;;4.40;99.90;;;;;;5054341;28;20444;-68
2022/01/27 12:51:23;;;;;;;1.73;1.63;;;4.50;99.90;;;;;;5051474;28;20472;-68
2022/01/27 12:54:10;;;;;;;0.50;0.50;;;4.50;99.90;;;;;;5047278;28;20437;-68
2022/01/27 12:56:58;;;;;;;0.40;0.40;;;4.50;99.90;;;;;;5053385;28;20420;-68
2022/01/27 12:59:45;;;;;;;0.60;0.60;;;4.60;99.90;;;;;;5058376;28;20448;-69
2022/01/27 13:02:32;;;;;;;3.77;2.40;;;4.70;99.90;;;;;;5060428;28;20424;-69
2022/01/27 13:05:21;;;;;;;0.50;0.50;;;4.80;99.90;;;;;;5069220;28;20450;-69
2022/01/27 13:08:10;;;;;;;0.50;0.50;;;4.90;99.90;;;;;;5067272;28;20941;-68
2022/01/27 13:11:02;;;;;;;4.00;1.53;;;5.00;99.90;;;;;;5068471;28;20437;-68
2022/01/27 13:13:49;;;;;;;1.43;1.33;;;5.10;99.90;;;;;;5070024;28;20475;-72
2022/01/27 13:16:41;;;;;;;1.10;0.90;;;5.20;99.90;;;;;;5069688;28;20436;-68
2022/01/27 13:19:42;;;;;;;5.90;1.40;;;5.20;99.90;;;;;;5061829;28;20460;-69
2022/01/27 13:22:43;;;;;;;3.30;1.17;;;5.30;99.90;;;;;;5065295;28;20447;-69
2022/01/27 13:25:38;;;;;;;0.50;0.50;;;5.20;99.90;;;;;;5066418;28;20470;-69
2022/01/27 13:28:28;;;;;;;2.33;1.50;;;5.30;99.90;;;;;;5050526;28;20453;-70
2022/01/27 13:31:15;;;;;;;2.43;1.00;;;5.30;99.90;;;;;;5040259;28;20485;-69
2022/01/27 13:34:04;;;;;;;2.10;2.00;;;5.30;99.90;;;;;;5057798;28;20428;-68
2022/01/27 13:36:57;;;;;;;0.50;0.50;;;5.30;99.90;;;;;;5055409;28;20456;-70
2022/01/27 13:42:55;;;;;;;0.40;0.40;;;5.40;99.90;;;;;;5047394;28;20575;-69
2022/01/27 13:45:42;;;;;;;1.10;1.10;;;5.50;99.90;;;;;;5064581;28;20432;-68
2022/01/27 13:48:29;;;;;;;0.40;0.40;;;5.60;99.90;;;;;;5062448;28;20448;-69
2022/01/27 13:51:21;;;;;;;1.27;1.17;;;5.60;99.90;;;;;;5063770;28;20448;-68
2022/01/27 13:54:08;;;;;;;1.53;1.43;;;5.70;99.90;;;;;;5061962;28;20838;-68
2022/01/27 13:57:03;;;;;;;1.73;1.20;;;5.70;99.90;;;;;;5060048;28;20440;-68
2022/01/27 13:59:54;;;;;;;0.50;0.50;;;5.70;99.90;;;;;;5055758;28;20444;-68
2022/01/27 14:02:43;;;;;;;0.63;0.60;;;5.70;99.90;;;;;;5051853;28;20547;-68
2022/01/27 14:05:30;;;;;;;2.57;1.90;;;5.70;99.90;;;;;;5053939;28;20804;-68
2022/01/27 14:08:17;;;;;;;4.13;1.60;;;5.60;99.90;;;;;;5052174;28;20455;-68
2022/01/27 14:11:04;;;;;;;0.40;0.40;;;5.60;99.90;;;;;;5056753;28;20942;-68
2022/01/27 14:13:57;;;;;;;0.60;0.60;;;5.70;99.90;;;;;;5055558;28;20420;-68
2022/01/27 14:16:44;;;;;;;0.70;0.70;;;5.70;99.90;;;;;;5051667;28;20420;-68
2022/01/27 14:19:32;;;;;;;2.40;1.47;;;5.80;99.90;;;;;;5051527;28;20837;-67
2022/01/27 14:22:21;;;;;;;0.40;0.40;;;5.80;99.90;;;;;;5050354;28;20431;-67
2022/01/27 14:25:11;;;;;;;1.13;1.13;;;5.70;99.90;;;;;;5053027;28;20416;-67
2022/01/27 14:27:58;;;;;;;0.77;0.70;;;5.70;99.90;;;;;;5052340;28;20424;-67
2022/01/27 14:30:46;;;;;;;2.60;1.53;;;5.70;99.90;;;;;;5051271;28;20933;-67
2022/01/27 14:33:33;;;;;;;1.30;0.73;;;5.60;99.90;;;;;;5055068;28;20477;-67
2022/01/27 14:36:22;;;;;;;3.10;1.10;;;5.60;99.90;;;;;;5054326;28;20432;-67
2022/01/27 14:39:09;;;;;;;1.40;1.00;;;5.70;99.90;;;;;;5054140;28;20455;-67
2022/01/27 14:41:56;;;;;;;0.93;0.80;;;5.60;99.90;;;;;;5052742;28;20452;-67
2022/01/27 14:44:43;;;;;;;2.30;1.67;;;5.70;99.90;;;;;;5057959;28;20489;-67
2022/01/27 14:47:32;;;;;;;1.30;1.20;;;5.80;99.90;;;;;;5052528;28;20868;-69
2022/01/27 14:50:19;;;;;;;1.17;0.93;;;5.70;99.90;;;;;;5045537;28;20822;-66
2022/01/27 14:53:07;;;;;;;0.50;0.50;;;5.80;99.90;;;;;;5070698;28;20563;-68
2022/01/27 14:55:54;;;;;;;0.50;0.50;;;5.80;99.90;;;;;;5055941;28;20454;-66
2022/01/27 14:58:41;;;;;;;1.53;1.40;;;5.80;99.90;;;;;;5065969;28;20450;-67
2022/01/27 15:01:28;;;;;;;0.80;0.70;;;5.90;99.90;;;;;;5053652;28;20428;-67
2022/01/27 15:04:17;;;;;;;0.60;0.60;;;5.90;99.90;;;;;;5051467;28;20425;-67
2022/01/27 15:07:04;;;;;;;0.50;0.50;;;6.10;99.90;;;;;;5056230;28;20447;-67
2022/01/27 15:09:51;;;;;;;0.97;0.97;;;5.90;99.90;;;;;;5073842;28;20601;-68
2022/01/27 15:12:38;;;;;;;3.80;0.60;;;6.10;99.90;;;;;;5075745;28;20463;-67
2022/01/27 15:21:35;;;;;;;1.53;1.43;;;6.10;99.90;;;;;;5036857;28;20412;-69
2022/01/27 15:24:22;;;;;;;3.23;1.30;;;6.20;99.90;;;;;;5038526;28;20459;-67
2022/01/27 15:27:09;;;;;;;0.90;0.70;;;6.10;99.90;;;;;;5055372;28;20452;-67